Grays Harbor City, Washington
Current Conditions -  °F | °C
As of 4:53 PM on Tuesday 21 Oct 2014 (Local Time) from KHQM Reporting Station
Light Rain Light Rain  
Wind Chill: 60°   Ceiling: 3300
Heat Index: 60°   Visibility: 6mi
Dew Point: 55°   Wind: 22mph
Humidity: 83%   Direction: 150°SSE
Pressure: 29.84"   Gusts: 33mph
Location:  47.0202°N, 123.878°W
Report Text: KHQM 212353Z AUTO 15019G29KT 6SM -RA SCT019 BKN033 OVC050 16/13 A2984 RMK AO2 PK WND 15029/2345 RAB47 SLP107 P0000 60001 T01560128 10161 20139 58014
Loading
Personal Weather Stations






























Interactive Weather Map
Tropical Storm Tracking
New forecast layout! Learn more

10-Day Weather Forecast

Advertisements
Track Severe Weather on mobile